sensor_id;sensor_type;location;lat;lon;timestamp;P1;durP1;ratioP1;P2;durP2;ratioP2
45366;SDS011;31100;55.848;37.636;2022-09-09T00:00:48;4.32;;;2.40;;
45366;SDS011;31100;55.848;37.636;2022-09-09T00:04:09;5.38;;;3.03;;
45366;SDS011;31100;55.848;37.636;2022-09-09T00:06:45;4.50;;;2.47;;
45366;SDS011;31100;55.848;37.636;2022-09-09T00:09:19;5.53;;;2.80;;
45366;SDS011;31100;55.848;37.636;2022-09-09T00:11:58;5.22;;;2.90;;
45366;SDS011;31100;55.848;37.636;2022-09-09T00:14:37;4.85;;;2.75;;
45366;SDS011;31100;55.848;37.636;2022-09-09T00:22:49;4.65;;;2.60;;
45366;SDS011;31100;55.848;37.636;2022-09-09T00:25:33;6.30;;;2.70;;
45366;SDS011;31100;55.848;37.636;2022-09-09T00:28:04;4.78;;;3.05;;
45366;SDS011;31100;55.848;37.636;2022-09-09T00:30:37;4.57;;;3.00;;
45366;SDS011;31100;55.848;37.636;2022-09-09T00:33:10;5.97;;;2.95;;
45366;SDS011;31100;55.848;37.636;2022-09-09T00:35:50;5.60;;;2.95;;
45366;SDS011;31100;55.848;37.636;2022-09-09T00:38:23;4.60;;;2.78;;
45366;SDS011;31100;55.848;37.636;2022-09-09T00:41:05;5.88;;;2.90;;
45366;SDS011;31100;55.848;37.636;2022-09-09T00:43:36;5.03;;;3.05;;
45366;SDS011;31100;55.848;37.636;2022-09-09T00:49:22;4.72;;;2.80;;
45366;SDS011;31100;55.848;37.636;2022-09-09T00:57:32;4.85;;;2.85;;
45366;SDS011;31100;55.848;37.636;2022-09-09T01:03:10;4.45;;;2.97;;
45366;SDS011;31100;55.848;37.636;2022-09-09T01:05:51;4.85;;;2.92;;
45366;SDS011;31100;55.848;37.636;2022-09-09T01:08:48;4.80;;;2.90;;
45366;SDS011;31100;55.848;37.636;2022-09-09T01:11:33;4.38;;;2.72;;
45366;SDS011;31100;55.848;37.636;2022-09-09T01:16:46;4.90;;;2.78;;
45366;SDS011;31100;55.848;37.636;2022-09-09T01:19:14;4.97;;;2.95;;
45366;SDS011;31100;55.848;37.636;2022-09-09T01:26:58;4.28;;;2.90;;
45366;SDS011;31100;55.848;37.636;2022-09-09T01:29:26;4.32;;;2.90;;
45366;SDS011;31100;55.848;37.636;2022-09-09T01:31:53;5.15;;;2.92;;
45366;SDS011;31100;55.848;37.636;2022-09-09T01:34:25;6.22;;;3.08;;
45366;SDS011;31100;55.848;37.636;2022-09-09T01:39:35;6.05;;;3.22;;
45366;SDS011;31100;55.848;37.636;2022-09-09T01:42:01;4.40;;;2.90;;
45366;SDS011;31100;55.848;37.636;2022-09-09T01:44:28;4.65;;;2.83;;
45366;SDS011;31100;55.848;37.636;2022-09-09T01:46:55;4.72;;;3.08;;
45366;SDS011;31100;55.848;37.636;2022-09-09T01:49:21;5.68;;;2.95;;
45366;SDS011;31100;55.848;37.636;2022-09-09T01:51:49;4.85;;;2.95;;
45366;SDS011;31100;55.848;37.636;2022-09-09T01:54:16;6.50;;;2.97;;
45366;SDS011;31100;55.848;37.636;2022-09-09T01:57:17;5.47;;;3.10;;
45366;SDS011;31100;55.848;37.636;2022-09-09T02:02:55;5.45;;;2.78;;
45366;SDS011;31100;55.848;37.636;2022-09-09T02:08:09;4.40;;;2.63;;
45366;SDS011;31100;55.848;37.636;2022-09-09T02:13:17;4.97;;;3.13;;
45366;SDS011;31100;55.848;37.636;2022-09-09T02:15:52;4.63;;;3.13;;
45366;SDS011;31100;55.848;37.636;2022-09-09T02:18:21;4.20;;;2.97;;
45366;SDS011;31100;55.848;37.636;2022-09-09T02:20:53;6.05;;;3.35;;
45366;SDS011;31100;55.848;37.636;2022-09-09T02:23:19;5.60;;;2.80;;
45366;SDS011;31100;55.848;37.636;2022-09-09T02:25:44;4.65;;;2.90;;
45366;SDS011;31100;55.848;37.636;2022-09-09T02:28:11;5.47;;;3.38;;
45366;SDS011;31100;55.848;37.636;2022-09-09T02:30:39;5.20;;;3.25;;
45366;SDS011;31100;55.848;37.636;2022-09-09T02:33:06;8.07;;;2.95;;
45366;SDS011;31100;55.848;37.636;2022-09-09T02:35:32;4.97;;;3.10;;
45366;SDS011;31100;55.848;37.636;2022-09-09T02:37:59;4.70;;;2.83;;
45366;SDS011;31100;55.848;37.636;2022-09-09T02:40:27;5.07;;;3.25;;
45366;SDS011;31100;55.848;37.636;2022-09-09T02:42:53;4.18;;;2.80;;
45366;SDS011;31100;55.848;37.636;2022-09-09T02:45:20;4.53;;;3.08;;
45366;SDS011;31100;55.848;37.636;2022-09-09T02:47:51;4.38;;;2.70;;
45366;SDS011;31100;55.848;37.636;2022-09-09T02:50:33;6.22;;;3.50;;
45366;SDS011;31100;55.848;37.636;2022-09-09T02:53:02;4.97;;;2.80;;
45366;SDS011;31100;55.848;37.636;2022-09-09T02:55:47;6.43;;;3.63;;
45366;SDS011;31100;55.848;37.636;2022-09-09T02:58:16;4.80;;;3.00;;
45366;SDS011;31100;55.848;37.636;2022-09-09T03:00:43;6.55;;;2.92;;
45366;SDS011;31100;55.848;37.636;2022-09-09T03:03:12;5.45;;;3.30;;
45366;SDS011;31100;55.848;37.636;2022-09-09T03:05:38;6.63;;;3.00;;
45366;SDS011;31100;55.848;37.636;2022-09-09T03:08:04;6.00;;;3.00;;
45366;SDS011;31100;55.848;37.636;2022-09-09T03:10:31;5.22;;;3.13;;
45366;SDS011;31100;55.848;37.636;2022-09-09T03:12:57;8.18;;;3.42;;
45366;SDS011;31100;55.848;37.636;2022-09-09T03:15:22;5.93;;;3.25;;
45366;SDS011;31100;55.848;37.636;2022-09-09T03:17:48;6.88;;;3.17;;
45366;SDS011;31100;55.848;37.636;2022-09-09T03:20:14;6.03;;;2.85;;
45366;SDS011;31100;55.848;37.636;2022-09-09T03:22:39;4.20;;;3.00;;
45366;SDS011;31100;55.848;37.636;2022-09-09T03:25:05;3.85;;;2.72;;
45366;SDS011;31100;55.848;37.636;2022-09-09T03:27:31;6.65;;;3.03;;
45366;SDS011;31100;55.848;37.636;2022-09-09T03:29:57;5.85;;;3.10;;
45366;SDS011;31100;55.848;37.636;2022-09-09T03:32:23;5.82;;;3.20;;
45366;SDS011;31100;55.848;37.636;2022-09-09T03:34:50;4.20;;;2.75;;
45366;SDS011;31100;55.848;37.636;2022-09-09T03:37:17;4.20;;;2.92;;
45366;SDS011;31100;55.848;37.636;2022-09-09T03:39:46;5.85;;;3.00;;
45366;SDS011;31100;55.848;37.636;2022-09-09T03:42:12;5.75;;;2.97;;
45366;SDS011;31100;55.848;37.636;2022-09-09T03:44:39;4.63;;;2.78;;
45366;SDS011;31100;55.848;37.636;2022-09-09T03:47:06;4.70;;;3.10;;
45366;SDS011;31100;55.848;37.636;2022-09-09T03:49:31;4.32;;;3.00;;
45366;SDS011;31100;55.848;37.636;2022-09-09T03:51:57;5.85;;;2.72;;
45366;SDS011;31100;55.848;37.636;2022-09-09T03:54:24;5.72;;;3.15;;
45366;SDS011;31100;55.848;37.636;2022-09-09T03:56:50;5.75;;;2.88;;
45366;SDS011;31100;55.848;37.636;2022-09-09T03:59:16;3.53;;;2.28;;
45366;SDS011;31100;55.848;37.636;2022-09-09T04:01:41;6.10;;;2.47;;
45366;SDS011;31100;55.848;37.636;2022-09-09T04:04:07;4.70;;;2.08;;
45366;SDS011;31100;55.848;37.636;2022-09-09T04:06:34;4.10;;;2.22;;
45366;SDS011;31100;55.848;37.636;2022-09-09T04:09:00;5.57;;;2.72;;
45366;SDS011;31100;55.848;37.636;2022-09-09T04:11:28;9.65;;;2.90;;
45366;SDS011;31100;55.848;37.636;2022-09-09T04:13:54;4.85;;;2.70;;
45366;SDS011;31100;55.848;37.636;2022-09-09T04:16:19;4.55;;;2.22;;
45366;SDS011;31100;55.848;37.636;2022-09-09T04:18:45;4.68;;;2.20;;
45366;SDS011;31100;55.848;37.636;2022-09-09T04:21:11;9.52;;;3.88;;
45366;SDS011;31100;55.848;37.636;2022-09-09T04:23:37;5.13;;;2.33;;
45366;SDS011;31100;55.848;37.636;2022-09-09T04:26:03;7.72;;;2.45;;
45366;SDS011;31100;55.848;37.636;2022-09-09T04:28:30;4.18;;;2.70;;
45366;SDS011;31100;55.848;37.636;2022-09-09T04:31:03;5.40;;;2.58;;
45366;SDS011;31100;55.848;37.636;2022-09-09T04:33:30;8.03;;;2.43;;
45366;SDS011;31100;55.848;37.636;2022-09-09T04:35:56;3.90;;;2.47;;
45366;SDS011;31100;55.848;37.636;2022-09-09T04:38:22;4.72;;;2.88;;
45366;SDS011;31100;55.848;37.636;2022-09-09T04:40:48;4.03;;;2.70;;
45366;SDS011;31100;55.848;37.636;2022-09-09T04:43:16;5.22;;;2.28;;
45366;SDS011;31100;55.848;37.636;2022-09-09T04:45:43;4.55;;;1.98;;
45366;SDS011;31100;55.848;37.636;2022-09-09T04:48:11;4.50;;;2.60;;
45366;SDS011;31100;55.848;37.636;2022-09-09T04:50:37;5.28;;;2.58;;
45366;SDS011;31100;55.848;37.636;2022-09-09T04:53:02;3.58;;;2.08;;
45366;SDS011;31100;55.848;37.636;2022-09-09T04:55:30;4.03;;;2.25;;
45366;SDS011;31100;55.848;37.636;2022-09-09T04:57:56;5.82;;;2.45;;
45366;SDS011;31100;55.848;37.636;2022-09-09T05:00:22;3.95;;;2.10;;
45366;SDS011;31100;55.848;37.636;2022-09-09T05:02:51;5.13;;;2.10;;
45366;SDS011;31100;55.848;37.636;2022-09-09T05:05:16;4.28;;;2.30;;
45366;SDS011;31100;55.848;37.636;2022-09-09T05:07:43;5.43;;;2.20;;
45366;SDS011;31100;55.848;37.636;2022-09-09T05:10:09;4.95;;;2.13;;
45366;SDS011;31100;55.848;37.636;2022-09-09T05:12:35;3.83;;;2.15;;
45366;SDS011;31100;55.848;37.636;2022-09-09T05:15:01;4.95;;;1.92;;
45366;SDS011;31100;55.848;37.636;2022-09-09T05:17:29;6.68;;;2.25;;
45366;SDS011;31100;55.848;37.636;2022-09-09T05:19:54;3.58;;;2.15;;
45366;SDS011;31100;55.848;37.636;2022-09-09T05:22:20;3.22;;;1.85;;
45366;SDS011;31100;55.848;37.636;2022-09-09T05:24:46;5.93;;;1.95;;
45366;SDS011;31100;55.848;37.636;2022-09-09T05:27:12;3.35;;;1.80;;
45366;SDS011;31100;55.848;37.636;2022-09-09T05:29:38;4.10;;;1.92;;
45366;SDS011;31100;55.848;37.636;2022-09-09T05:32:13;5.28;;;2.13;;
45366;SDS011;31100;55.848;37.636;2022-09-09T05:34:41;3.10;;;1.90;;
45366;SDS011;31100;55.848;37.636;2022-09-09T05:37:06;3.30;;;1.65;;
45366;SDS011;31100;55.848;37.636;2022-09-09T05:39:33;3.70;;;1.90;;
45366;SDS011;31100;55.848;37.636;2022-09-09T05:41:59;4.05;;;1.83;;
45366;SDS011;31100;55.848;37.636;2022-09-09T05:44:24;4.07;;;1.90;;
45366;SDS011;31100;55.848;37.636;2022-09-09T05:46:52;3.85;;;1.90;;
45366;SDS011;31100;55.848;37.636;2022-09-09T05:49:19;4.90;;;1.90;;
45366;SDS011;31100;55.848;37.636;2022-09-09T05:51:45;3.88;;;1.67;;
45366;SDS011;31100;55.848;37.636;2022-09-09T05:54:11;3.92;;;2.30;;
45366;SDS011;31100;55.848;37.636;2022-09-09T05:56:40;5.65;;;2.45;;
45366;SDS011;31100;55.848;37.636;2022-09-09T05:59:05;3.95;;;1.40;;
45366;SDS011;31100;55.848;37.636;2022-09-09T06:01:32;5.97;;;1.70;;
45366;SDS011;31100;55.848;37.636;2022-09-09T06:03:59;2.20;;;1.30;;
45366;SDS011;31100;55.848;37.636;2022-09-09T06:06:25;4.93;;;1.92;;
45366;SDS011;31100;55.848;37.636;2022-09-09T06:08:53;3.13;;;1.20;;
45366;SDS011;31100;55.848;37.636;2022-09-09T06:11:28;4.57;;;1.42;;
45366;SDS011;31100;55.848;37.636;2022-09-09T06:13:57;3.78;;;1.30;;
45366;SDS011;31100;55.848;37.636;2022-09-09T06:16:25;3.83;;;1.20;;
45366;SDS011;31100;55.848;37.636;2022-09-09T06:18:52;4.63;;;1.55;;
45366;SDS011;31100;55.848;37.636;2022-09-09T06:21:24;2.67;;;1.05;;
45366;SDS011;31100;55.848;37.636;2022-09-09T06:23:51;4.80;;;1.67;;
45366;SDS011;31100;55.848;37.636;2022-09-09T06:28:43;3.10;;;1.02;;
45366;SDS011;31100;55.848;37.636;2022-09-09T06:31:11;3.65;;;1.40;;
45366;SDS011;31100;55.848;37.636;2022-09-09T06:33:38;2.55;;;1.13;;
45366;SDS011;31100;55.848;37.636;2022-09-09T06:36:15;4.28;;;1.40;;
45366;SDS011;31100;55.848;37.636;2022-09-09T06:38:43;2.42;;;0.90;;
45366;SDS011;31100;55.848;37.636;2022-09-09T06:41:10;3.78;;;0.90;;
45366;SDS011;31100;55.848;37.636;2022-09-09T06:43:36;2.03;;;0.90;;
45366;SDS011;31100;55.848;37.636;2022-09-09T06:46:06;2.08;;;0.90;;
45366;SDS011;31100;55.848;37.636;2022-09-09T06:48:34;3.17;;;1.00;;
45366;SDS011;31100;55.848;37.636;2022-09-09T06:51:02;1.55;;;0.80;;
45366;SDS011;31100;55.848;37.636;2022-09-09T06:53:29;2.35;;;0.93;;
45366;SDS011;31100;55.848;37.636;2022-09-09T06:55:54;4.22;;;0.93;;
45366;SDS011;31100;55.848;37.636;2022-09-09T06:58:20;3.92;;;1.10;;
45366;SDS011;31100;55.848;37.636;2022-09-09T07:00:47;1.77;;;0.88;;
45366;SDS011;31100;55.848;37.636;2022-09-09T07:03:13;2.47;;;0.88;;
45366;SDS011;31100;55.848;37.636;2022-09-09T07:05:38;2.85;;;1.20;;
45366;SDS011;31100;55.848;37.636;2022-09-09T07:08:09;2.50;;;1.08;;
45366;SDS011;31100;55.848;37.636;2022-09-09T07:10:35;2.85;;;0.80;;
45366;SDS011;31100;55.848;37.636;2022-09-09T07:13:01;2.85;;;1.00;;
45366;SDS011;31100;55.848;37.636;2022-09-09T07:15:27;1.77;;;0.80;;
45366;SDS011;31100;55.848;37.636;2022-09-09T07:17:53;2.17;;;0.93;;
45366;SDS011;31100;55.848;37.636;2022-09-09T07:20:19;3.97;;;1.52;;
45366;SDS011;31100;55.848;37.636;2022-09-09T07:22:45;2.00;;;0.90;;
45366;SDS011;31100;55.848;37.636;2022-09-09T07:25:10;1.88;;;0.90;;
45366;SDS011;31100;55.848;37.636;2022-09-09T07:27:36;1.73;;;0.80;;
45366;SDS011;31100;55.848;37.636;2022-09-09T07:30:02;4.13;;;0.93;;
45366;SDS011;31100;55.848;37.636;2022-09-09T07:32:29;2.30;;;0.88;;
45366;SDS011;31100;55.848;37.636;2022-09-09T07:34:55;2.38;;;0.68;;
45366;SDS011;31100;55.848;37.636;2022-09-09T07:37:23;1.88;;;0.50;;
45366;SDS011;31100;55.848;37.636;2022-09-09T07:39:49;2.88;;;0.60;;
45366;SDS011;31100;55.848;37.636;2022-09-09T07:42:16;2.33;;;0.70;;
45366;SDS011;31100;55.848;37.636;2022-09-09T07:44:41;1.20;;;0.60;;
45366;SDS011;31100;55.848;37.636;2022-09-09T07:47:07;2.00;;;0.60;;
45366;SDS011;31100;55.848;37.636;2022-09-09T07:49:33;2.90;;;1.02;;
45366;SDS011;31100;55.848;37.636;2022-09-09T07:51:59;4.22;;;0.70;;
45366;SDS011;31100;55.848;37.636;2022-09-09T07:54:25;2.78;;;0.60;;
45366;SDS011;31100;55.848;37.636;2022-09-09T07:56:51;2.35;;;1.35;;
45366;SDS011;31100;55.848;37.636;2022-09-09T07:59:17;0.73;;;0.50;;
45366;SDS011;31100;55.848;37.636;2022-09-09T08:01:48;2.13;;;0.60;;
45366;SDS011;31100;55.848;37.636;2022-09-09T08:04:19;1.58;;;0.52;;
45366;SDS011;31100;55.848;37.636;2022-09-09T08:06:46;2.28;;;0.68;;
45366;SDS011;31100;55.848;37.636;2022-09-09T08:09:13;2.00;;;0.60;;
45366;SDS011;31100;55.848;37.636;2022-09-09T08:11:39;1.70;;;0.63;;
45366;SDS011;31100;55.848;37.636;2022-09-09T08:14:08;3.28;;;1.27;;
45366;SDS011;31100;55.848;37.636;2022-09-09T08:16:36;2.47;;;0.75;;
45366;SDS011;31100;55.848;37.636;2022-09-09T08:19:04;1.52;;;0.60;;
45366;SDS011;31100;55.848;37.636;2022-09-09T08:21:31;2.78;;;0.90;;
45366;SDS011;31100;55.848;37.636;2022-09-09T08:23:58;2.55;;;0.73;;
45366;SDS011;31100;55.848;37.636;2022-09-09T08:26:26;1.80;;;0.75;;
45366;SDS011;31100;55.848;37.636;2022-09-09T08:28:54;1.77;;;0.70;;
45366;SDS011;31100;55.848;37.636;2022-09-09T08:31:22;2.83;;;0.88;;
45366;SDS011;31100;55.848;37.636;2022-09-09T08:33:48;3.65;;;1.00;;
45366;SDS011;31100;55.848;37.636;2022-09-09T08:36:18;5.82;;;1.63;;
45366;SDS011;31100;55.848;37.636;2022-09-09T08:38:49;2.15;;;0.63;;
45366;SDS011;31100;55.848;37.636;2022-09-09T08:43:45;1.50;;;0.60;;
45366;SDS011;31100;55.848;37.636;2022-09-09T08:51:30;1.10;;;0.40;;
45366;SDS011;31100;55.848;37.636;2022-09-09T08:53:58;1.13;;;0.68;;
45366;SDS011;31100;55.848;37.636;2022-09-09T08:56:27;4.00;;;1.60;;
45366;SDS011;31100;55.848;37.636;2022-09-09T08:58:56;5.38;;;1.70;;
45366;SDS011;31100;55.848;37.636;2022-09-09T09:10:16;1.60;;;0.60;;
45366;SDS011;31100;55.848;37.636;2022-09-09T09:12:55;3.10;;;1.00;;
45366;SDS011;31100;55.848;37.636;2022-09-09T09:15:25;1.85;;;0.75;;
45366;SDS011;31100;55.848;37.636;2022-09-09T09:17:55;2.40;;;1.08;;
45366;SDS011;31100;55.848;37.636;2022-09-09T09:20:23;2.97;;;1.17;;
45366;SDS011;31100;55.848;37.636;2022-09-09T09:23:04;1.40;;;0.70;;
45366;SDS011;31100;55.848;37.636;2022-09-09T09:25:34;2.38;;;0.98;;
45366;SDS011;31100;55.848;37.636;2022-09-09T09:28:12;2.90;;;0.50;;
45366;SDS011;31100;55.848;37.636;2022-09-09T09:30:52;1.50;;;0.80;;
45366;SDS011;31100;55.848;37.636;2022-09-09T09:33:27;2.20;;;0.60;;
45366;SDS011;31100;55.848;37.636;2022-09-09T09:35:56;2.67;;;0.80;;
45366;SDS011;31100;55.848;37.636;2022-09-09T09:38:23;3.03;;;0.65;;
45366;SDS011;31100;55.848;37.636;2022-09-09T09:40:50;1.23;;;0.60;;
45366;SDS011;31100;55.848;37.636;2022-09-09T09:45:58;1.92;;;0.70;;
45366;SDS011;31100;55.848;37.636;2022-09-09T09:48:25;1.67;;;0.60;;
45366;SDS011;31100;55.848;37.636;2022-09-09T09:50:58;1.13;;;0.40;;
45366;SDS011;31100;55.848;37.636;2022-09-09T09:53:32;1.80;;;0.70;;
45366;SDS011;31100;55.848;37.636;2022-09-09T09:56:00;0.73;;;0.50;;
45366;SDS011;31100;55.848;37.636;2022-09-09T09:58:27;4.15;;;0.90;;
45366;SDS011;31100;55.848;37.636;2022-09-09T10:00:57;0.90;;;0.50;;
45366;SDS011;31100;55.848;37.636;2022-09-09T10:03:25;1.42;;;0.50;;
45366;SDS011;31100;55.848;37.636;2022-09-09T10:05:52;1.30;;;0.52;;
45366;SDS011;31100;55.848;37.636;2022-09-09T10:08:18;2.08;;;0.50;;
45366;SDS011;31100;55.848;37.636;2022-09-09T10:16:35;1.85;;;0.60;;
45366;SDS011;31100;55.848;37.636;2022-09-09T10:19:05;1.15;;;0.40;;
45366;SDS011;31100;55.848;37.636;2022-09-09T10:29:21;1.20;;;0.50;;
45366;SDS011;31100;55.848;37.636;2022-09-09T10:34:54;1.85;;;0.50;;
45366;SDS011;31100;55.848;37.636;2022-09-09T10:40:32;1.77;;;0.70;;
45366;SDS011;31100;55.848;37.636;2022-09-09T10:45:32;2.80;;;1.20;;
45366;SDS011;31100;55.848;37.636;2022-09-09T10:48:12;1.50;;;0.70;;
45366;SDS011;31100;55.848;37.636;2022-09-09T10:50:55;2.28;;;0.80;;
45366;SDS011;31100;55.848;37.636;2022-09-09T10:56:12;5.22;;;0.63;;
45366;SDS011;31100;55.848;37.636;2022-09-09T10:58:47;0.98;;;0.50;;
45366;SDS011;31100;55.848;37.636;2022-09-09T11:01:28;0.93;;;0.43;;
45366;SDS011;31100;55.848;37.636;2022-09-09T11:06:45;8.98;;;1.20;;
45366;SDS011;31100;55.848;37.636;2022-09-09T11:09:15;1.50;;;0.75;;
45366;SDS011;31100;55.848;37.636;2022-09-09T11:12:02;2.45;;;1.00;;
45366;SDS011;31100;55.848;37.636;2022-09-09T11:14:39;3.65;;;1.83;;
45366;SDS011;31100;55.848;37.636;2022-09-09T11:17:12;3.47;;;0.80;;
45366;SDS011;31100;55.848;37.636;2022-09-09T11:19:40;1.80;;;0.70;;
45366;SDS011;31100;55.848;37.636;2022-09-09T11:30:45;1.83;;;0.90;;
45366;SDS011;31100;55.848;37.636;2022-09-09T11:39:15;2.78;;;0.88;;
45366;SDS011;31100;55.848;37.636;2022-09-09T11:41:52;2.15;;;0.80;;
45366;SDS011;31100;55.848;37.636;2022-09-09T11:44:27;1.77;;;0.75;;
45366;SDS011;31100;55.848;37.636;2022-09-09T11:46:54;2.15;;;0.75;;
45366;SDS011;31100;55.848;37.636;2022-09-09T11:49:27;2.45;;;1.00;;
45366;SDS011;31100;55.848;37.636;2022-09-09T11:51:56;4.03;;;1.23;;
45366;SDS011;31100;55.848;37.636;2022-09-09T11:54:32;2.95;;;1.00;;
45366;SDS011;31100;55.848;37.636;2022-09-09T11:57:04;2.10;;;0.90;;
45366;SDS011;31100;55.848;37.636;2022-09-09T11:59:30;4.75;;;0.85;;
45366;SDS011;31100;55.848;37.636;2022-09-09T12:01:57;2.35;;;0.82;;
45366;SDS011;31100;55.848;37.636;2022-09-09T12:15:01;2.92;;;1.50;;
45366;SDS011;31100;55.848;37.636;2022-09-09T12:17:46;2.60;;;1.30;;
45366;SDS011;31100;55.848;37.636;2022-09-09T12:20:14;2.97;;;1.15;;
45366;SDS011;31100;55.848;37.636;2022-09-09T12:28:22;1.95;;;0.98;;
45366;SDS011;31100;55.848;37.636;2022-09-09T12:31:21;2.92;;;1.50;;
45366;SDS011;31100;55.848;37.636;2022-09-09T12:33:51;1.98;;;0.90;;
45366;SDS011;31100;55.848;37.636;2022-09-09T12:36:18;2.00;;;0.90;;
45366;SDS011;31100;55.848;37.636;2022-09-09T12:38:46;3.33;;;1.05;;
45366;SDS011;31100;55.848;37.636;2022-09-09T12:41:19;1.77;;;0.80;;
45366;SDS011;31100;55.848;37.636;2022-09-09T12:43:49;2.28;;;1.00;;
45366;SDS011;31100;55.848;37.636;2022-09-09T12:49:01;3.08;;;1.00;;
45366;SDS011;31100;55.848;37.636;2022-09-09T12:51:28;2.10;;;1.00;;
45366;SDS011;31100;55.848;37.636;2022-09-09T12:53:55;2.85;;;0.88;;
45366;SDS011;31100;55.848;37.636;2022-09-09T12:56:22;3.58;;;1.20;;
45366;SDS011;31100;55.848;37.636;2022-09-09T12:58:52;2.40;;;0.90;;
45366;SDS011;31100;55.848;37.636;2022-09-09T13:01:29;5.10;;;1.42;;
45366;SDS011;31100;55.848;37.636;2022-09-09T13:04:00;2.22;;;1.10;;
45366;SDS011;31100;55.848;37.636;2022-09-09T13:06:30;2.47;;;1.10;;
45366;SDS011;31100;55.848;37.636;2022-09-09T13:08:57;6.32;;;1.30;;
45366;SDS011;31100;55.848;37.636;2022-09-09T13:11:29;4.55;;;1.70;;
45366;SDS011;31100;55.848;37.636;2022-09-09T13:13:56;5.22;;;1.30;;
45366;SDS011;31100;55.848;37.636;2022-09-09T13:16:25;2.42;;;1.00;;
45366;SDS011;31100;55.848;37.636;2022-09-09T13:18:57;2.13;;;0.90;;
45366;SDS011;31100;55.848;37.636;2022-09-09T13:21:31;2.55;;;0.80;;
45366;SDS011;31100;55.848;37.636;2022-09-09T13:24:03;2.03;;;0.98;;
45366;SDS011;31100;55.848;37.636;2022-09-09T13:26:35;2.65;;;0.90;;
45366;SDS011;31100;55.848;37.636;2022-09-09T13:29:08;2.03;;;0.90;;
45366;SDS011;31100;55.848;37.636;2022-09-09T13:31:43;2.35;;;0.70;;
45366;SDS011;31100;55.848;37.636;2022-09-09T13:37:25;2.03;;;0.82;;
45366;SDS011;31100;55.848;37.636;2022-09-09T13:40:06;3.45;;;1.13;;
45366;SDS011;31100;55.848;37.636;2022-09-09T13:42:42;3.25;;;0.90;;
45366;SDS011;31100;55.848;37.636;2022-09-09T13:45:19;2.63;;;0.75;;
45366;SDS011;31100;55.848;37.636;2022-09-09T13:47:47;4.93;;;1.60;;
45366;SDS011;31100;55.848;37.636;2022-09-09T13:50:29;3.33;;;1.30;;
45366;SDS011;31100;55.848;37.636;2022-09-09T13:52:57;3.92;;;1.85;;
45366;SDS011;31100;55.848;37.636;2022-09-09T13:55:24;4.78;;;1.40;;
45366;SDS011;31100;55.848;37.636;2022-09-09T13:57:59;2.70;;;0.80;;
45366;SDS011;31100;55.848;37.636;2022-09-09T14:00:26;2.30;;;0.85;;
45366;SDS011;31100;55.848;37.636;2022-09-09T14:02:54;5.70;;;1.10;;
45366;SDS011;31100;55.848;37.636;2022-09-09T14:05:22;3.13;;;0.90;;
45366;SDS011;31100;55.848;37.636;2022-09-09T14:07:48;3.10;;;0.82;;
45366;SDS011;31100;55.848;37.636;2022-09-09T14:10:14;2.58;;;0.80;;
45366;SDS011;31100;55.848;37.636;2022-09-09T14:12:40;2.05;;;0.82;;
45366;SDS011;31100;55.848;37.636;2022-09-09T14:15:07;3.47;;;0.80;;
45366;SDS011;31100;55.848;37.636;2022-09-09T14:17:34;2.53;;;0.90;;
45366;SDS011;31100;55.848;37.636;2022-09-09T14:20:02;3.30;;;0.90;;
45366;SDS011;31100;55.848;37.636;2022-09-09T14:22:34;3.90;;;1.15;;
45366;SDS011;31100;55.848;37.636;2022-09-09T14:25:01;2.10;;;0.80;;
45366;SDS011;31100;55.848;37.636;2022-09-09T14:27:27;5.40;;;1.20;;
45366;SDS011;31100;55.848;37.636;2022-09-09T14:29:53;4.03;;;1.38;;
45366;SDS011;31100;55.848;37.636;2022-09-09T14:32:19;1.70;;;0.90;;
45366;SDS011;31100;55.848;37.636;2022-09-09T14:34:46;2.58;;;0.90;;
45366;SDS011;31100;55.848;37.636;2022-09-09T14:37:15;5.95;;;1.65;;
45366;SDS011;31100;55.848;37.636;2022-09-09T14:39:42;3.05;;;1.00;;
45366;SDS011;31100;55.848;37.636;2022-09-09T14:42:09;3.10;;;0.90;;
45366;SDS011;31100;55.848;37.636;2022-09-09T14:44:36;2.22;;;1.05;;
45366;SDS011;31100;55.848;37.636;2022-09-09T14:47:04;2.00;;;0.88;;
45366;SDS011;31100;55.848;37.636;2022-09-09T14:49:30;2.67;;;0.93;;
45366;SDS011;31100;55.848;37.636;2022-09-09T14:51:56;3.53;;;1.70;;
45366;SDS011;31100;55.848;37.636;2022-09-09T14:54:22;2.58;;;1.30;;
45366;SDS011;31100;55.848;37.636;2022-09-09T14:56:48;1.85;;;0.88;;
45366;SDS011;31100;55.848;37.636;2022-09-09T14:59:13;3.20;;;0.90;;
45366;SDS011;31100;55.848;37.636;2022-09-09T15:01:39;3.55;;;0.70;;
45366;SDS011;31100;55.848;37.636;2022-09-09T15:04:05;6.55;;;1.00;;
45366;SDS011;31100;55.848;37.636;2022-09-09T15:06:32;2.85;;;1.27;;
45366;SDS011;31100;55.848;37.636;2022-09-09T15:08:59;2.65;;;1.08;;
45366;SDS011;31100;55.848;37.636;2022-09-09T15:11:26;7.38;;;4.85;;
45366;SDS011;31100;55.848;37.636;2022-09-09T15:13:53;2.15;;;1.20;;
45366;SDS011;31100;55.848;37.636;2022-09-09T15:16:19;2.05;;;1.00;;
45366;SDS011;31100;55.848;37.636;2022-09-09T15:18:46;2.95;;;1.10;;
45366;SDS011;31100;55.848;37.636;2022-09-09T15:21:16;2.40;;;1.15;;
45366;SDS011;31100;55.848;37.636;2022-09-09T15:23:46;2.63;;;1.08;;
45366;SDS011;31100;55.848;37.636;2022-09-09T15:26:13;2.72;;;1.35;;
45366;SDS011;31100;55.848;37.636;2022-09-09T15:28:42;3.70;;;1.70;;
45366;SDS011;31100;55.848;37.636;2022-09-09T15:31:12;4.43;;;1.80;;
45366;SDS011;31100;55.848;37.636;2022-09-09T15:33:39;4.53;;;1.67;;
45366;SDS011;31100;55.848;37.636;2022-09-09T15:36:27;5.32;;;1.83;;
45366;SDS011;31100;55.848;37.636;2022-09-09T15:38:58;6.50;;;2.78;;
45366;SDS011;31100;55.848;37.636;2022-09-09T15:41:25;5.78;;;3.20;;
45366;SDS011;31100;55.848;37.636;2022-09-09T15:43:51;5.90;;;2.50;;
45366;SDS011;31100;55.848;37.636;2022-09-09T15:48:53;7.28;;;2.97;;
45366;SDS011;31100;55.848;37.636;2022-09-09T15:51:23;5.43;;;3.45;;
45366;SDS011;31100;55.848;37.636;2022-09-09T15:53:56;5.78;;;3.80;;
45366;SDS011;31100;55.848;37.636;2022-09-09T15:56:23;6.95;;;2.90;;
45366;SDS011;31100;55.848;37.636;2022-09-09T15:58:50;5.72;;;2.75;;
45366;SDS011;31100;55.848;37.636;2022-09-09T16:01:17;4.97;;;2.78;;
45366;SDS011;31100;55.848;37.636;2022-09-09T16:03:44;8.10;;;2.75;;
45366;SDS011;31100;55.848;37.636;2022-09-09T16:06:12;7.90;;;4.28;;
45366;SDS011;31100;55.848;37.636;2022-09-09T16:08:39;9.63;;;3.50;;
45366;SDS011;31100;55.848;37.636;2022-09-09T16:11:15;10.15;;;3.33;;
45366;SDS011;31100;55.848;37.636;2022-09-09T16:13:43;7.13;;;2.95;;
45366;SDS011;31100;55.848;37.636;2022-09-09T16:16:12;6.50;;;2.85;;
45366;SDS011;31100;55.848;37.636;2022-09-09T16:18:42;5.55;;;3.00;;
45366;SDS011;31100;55.848;37.636;2022-09-09T16:21:15;5.38;;;2.90;;
45366;SDS011;31100;55.848;37.636;2022-09-09T16:23:42;4.53;;;2.45;;
45366;SDS011;31100;55.848;37.636;2022-09-09T16:26:10;5.57;;;2.40;;
45366;SDS011;31100;55.848;37.636;2022-09-09T16:28:36;4.65;;;2.35;;
45366;SDS011;31100;55.848;37.636;2022-09-09T16:31:09;6.13;;;2.90;;
45366;SDS011;31100;55.848;37.636;2022-09-09T16:33:36;5.75;;;2.80;;
45366;SDS011;31100;55.848;37.636;2022-09-09T16:36:06;12.52;;;3.88;;
45366;SDS011;31100;55.848;37.636;2022-09-09T16:38:35;5.38;;;3.35;;
45366;SDS011;31100;55.848;37.636;2022-09-09T16:41:02;6.63;;;2.75;;
45366;SDS011;31100;55.848;37.636;2022-09-09T16:43:30;7.50;;;3.10;;
45366;SDS011;31100;55.848;37.636;2022-09-09T16:45:56;5.15;;;2.97;;
45366;SDS011;31100;55.848;37.636;2022-09-09T16:48:21;7.15;;;3.20;;
45366;SDS011;31100;55.848;37.636;2022-09-09T16:50:47;9.43;;;3.20;;